Tiempo atmosférico en la estación meteorológica de Fonfría, Teruel (1262 m.)



Fecha
DESCASC
Temp. máxima en grados centígrados (hora)
DESCASC
Temp. mínima en grados centígrados (hora)
DESCASC
Temp. media en grados centígrados
DESCASC
Racha de viento máxima en m/sg (hora)
DESCASC
Velocidad máxima media en intervalos de 10 minutos(hora)
DESCASC
Precipitaciones diarias en mm
DESCASC
Precipitaciones de 00:00 a 06:00 en mm
DESCASC
Precipitaciones de 06:00 a 12:00 en mm
DESCASC
Precipitaciones de 12:00 a 18:00 en mm
DESCASC
Precipitaciones de 18:00 a 24:00 en mm
DESCASC
29-03-2020 12.5 (15:30) 2.2 (06:00) 7.4 11.11 (13:20) 7.78 (12:00) 0 0 0 0 0
28-03-2020 9.9 (15:30) -0.5 (02:00) 4.7 7.22 (15:30) 3.89 (15:30) 0 0 0 0 0
27-03-2020 7.5 (14:40) -4.2 (06:10) 1.7 7.78 (16:40) 5 (16:40) 0 0 0 0 0
26-03-2020 5.3 (15:30) -2.1 (-00:0) 1.6 16.39 (12:30) 11.39 (12:30) 0.2 0 0 0.2 0
25-03-2020 7.2 (15:00) 1.1 (00:00) 4.1 9.44 (06:50) 6.67 (04:30) 2.6 2.6 0 0 0
24-03-2020 7.3 (13:00) 1.6 (00:00) 4.5 11.11 (06:00) 6.39 (06:00) 0.8 0.8 0 0 0
23-03-2020 8.5 (16:10) 3.8 (00:00) 6.1 10 (10:40) 6.39 (10:50) 0.4 0 0.4 0 0
22-03-2020 8.2 (12:30) 3.6 (06:40) 5.9 7.78 (13:10) 4.72 (12:50) 0.2 0 0 0 0.2
21-03-2020 9 (10:40) 1.2 (00:00) 5.1 11.11 (03:20) 8.61 (03:30) 0 0 0 0 0
20-03-2020 10.9 (11:50) 1.9 (00:00) 6.4 9.44 (08:10) 7.5 (08:30) 0 0 0 0 0
19-03-2020 12.6 (14:20) 4.1 (00:00) 8.4 7.5 (16:10) 5 (16:50) 0 0 0 0 0
18-03-2020 12.2 (16:10) 4.4 (00:00) 8.3 7.22 (10:50) 5.28 (10:50) 0 0 0 0 0
17-03-2020 7.5 (12:40) 4.7 (00:00) 6.1 10.56 (15:50) 7.22 (16:50) 11.8 8.6 2 1.2 0
16-03-2020 5.9 (03:20) 0.2 (00:00) 3.1 10.83 (17:40) 7.5 (17:40) 21 4.8 8.2 7.4 0.6
15-03-2020 16.8 (13:30) 5.3 (00:00) 11 12.78 (22:20) 8.61 (07:30) 3 0 0 0.2 2.8
14-03-2020 15 (14:20) 3.2 (00:00) 9.1 6.39 (15:40) 4.17 (16:50) 0 0 0 0 0
13-03-2020 13.2 (13:10) 4.4 (22:40) 8.8 7.22 (13:40) 4.44 (14:20) 0 0 0 0 0
12-03-2020 23.9 (13:50) 8 (00:00) 15.9 7.5 (06:00) 7.22 (06:10) 0 0 0 0 0
11-03-2020 20.8 (14:50) 10.3 (00:00) 15.5 10 (04:10) 6.94 (09:40) 0 0 0 0 0
10-03-2020 17.7 (15:40) 1.9 (00:00) 9.8 12.22 (02:10) 8.33 (10:50) 0 0 0 0 0
09-03-2020 8.4 (15:00) 2.2 (00:00) 5.3 15 (20:30) 10.56 (20:30) 0 0 0 0 0
08-03-2020 12.3 (16:20) 2.3 (00:00) 7.3 13.33 (01:00) 10 (01:00) 0 0 0 0 0
07-03-2020 7.1 (14:40) -1 (-00:0) 3 17.78 (15:10) 13.33 (14:20) 0.4 0 0.4 0 0
06-03-2020 4.6 (15:40) -0.6 (-00:0) 2 20.83 (17:20) 14.72 (17:10) 1 0.2 0 0.8 0
05-03-2020 9.6 (15:50) 2.4 (00:00) 6 21.67 (16:10) 12.5 (16:10) 2.2 0 0 1.4 0.8
04-03-2020 12.9 (13:50) 6.1 (02:40) 9.5 14.72 (00:40) 10 (15:10) 0.4 0 0.4 0 0
03-03-2020 11.1 (16:40) -0.2 (00:00) 5.5 20.56 (16:20) 13.33 (16:50) 3.6 0 3.6 0 0
02-03-2020 9.3 (01:30) -0.7 (-00:0) 4.3 28.06 (07:40) 16.39 (07:40) 5 0 1.4 2.6 1
01-03-2020 10.4 (16:40) 3.9 (00:00) 7.1 16.67 (10:40) 10.83 (13:40) 0 0 0 0 0
29-02-2020 13.4 (12:50) 5.1 (00:00) 9.2 16.11 (11:10) 9.17 (09:30) 0 0 0 0 0

Gráficas

Temp. máximas Temp. mínimas Temp. medias Precipitaciones Rachas de viento máximas Velocidades máximas media en intervalos de 10 minutos

Datos horarios

Fecha y hora oficial Temperatura (ºC) Velocidad del viento (km/h) Dirección del viento Racha (km/h) Dirección de racha Precipitación (mm) Presión (hPa) Tendencia (hPa) Humedad (%)
2020-03-29 23:00:00 3 15 Norte 37 Norte 0 -- -- 92
2020-03-29 22:00:00 3.2 22 Norte 37 Norte 0 -- -- 91
2020-03-29 21:00:00 4 23 Norte 38 Norte 0 -- -- 88
2020-03-29 20:00:00 5.8 23 Nordeste 36 Norte 0 -- -- 77
2020-03-29 19:00:00 8.7 21 Nordeste 32 Norte 0 -- -- 57
2020-03-29 18:00:00 10.5 20 Norte 31 Norte 0 -- -- 45
2020-03-29 17:00:00 11.5 15 Norte 34 Norte 0 -- -- 43
2020-03-29 16:00:00 12.1 21 Norte 31 Noroeste 0 -- -- 43
2020-03-29 15:00:00 11.9 20 Norte 36 Noroeste 0 -- -- 48
2020-03-29 14:00:00 11.6 23 Norte 40 Noroeste 0 -- -- 49
2020-03-29 13:00:00 10.5 26 Norte 38 Noroeste 0 -- -- 56
2020-03-29 12:00:00 10.2 28 Noroeste 37 Noroeste 0 -- -- 53
2020-03-29 11:00:00 9.7 25 Norte 32 Norte 0 -- -- 57
2020-03-29 10:00:00 7 15 Norte 19 Norte 0 -- -- 71
2020-03-29 09:00:00 5.3 2 Norte 8 Noroeste 0 -- -- 73
2020-03-29 08:00:00 3.9 4 Norte 8 Noroeste 0 -- -- 70
2020-03-29 07:00:00 3.8 5 Oeste 8 Oeste 0 -- -- 69
2020-03-29 06:00:00 2.2 6 Oeste 10 Oeste 0 -- -- 79
2020-03-29 05:00:00 3.7 5 Noroeste 9 Noroeste 0 -- -- 71
2020-03-29 03:00:00 4.4 6 Noroeste 8 Oeste 0 -- -- 60
2020-03-29 01:00:00 5.1 5 Oeste 8 Oeste 0 -- -- 55
2020-03-29 00:00:00 4.8 6 Oeste 8 Oeste 0 -- -- 60
2020-03-28 23:00:00 5 4 Oeste 7 Oeste 0 -- -- 68
2020-03-28 22:00:00 4.5 3 Oeste 6 Oeste 0 -- -- 70
2020-03-28 21:00:00 3.9 4 Oeste 8 Oeste 0 -- -- 80
2020-03-28 20:00:00 5.5 3 Oeste 11 Este 0 -- -- 74
2020-03-28 19:00:00 7.8 6 Este 15 Sudeste 0 -- -- 64
2020-03-28 18:00:00 9.3 10 Este 18 Este 0 -- -- 59
2020-03-28 17:00:00 9.8 9 Sudeste 23 Este 0 -- -- 57
2020-03-28 16:00:00 9.3 10 Este 26 Nordeste 0 -- -- 57
2020-03-28 15:00:00 9.5 11 Este 24 Este 0 -- -- 54
2020-03-28 14:00:00 8.3 10 Este 23 Sudeste 0 -- -- 57
2020-03-28 13:00:00 9.4 8 Este 19 Sudeste 0 -- -- 54
2020-03-28 12:00:00 8.8 7 Sur 19 Este 0 -- -- 57
2020-03-28 11:00:00 8.7 7 Sudeste 17 Este 0 -- -- 56
2020-03-28 10:00:00 6.8 6 Este 15 Este 0 -- -- 59
2020-03-28 09:00:00 5 4 Norte 8 Norte 0 -- -- 66
2020-03-28 08:00:00 2.8 3 Noroeste 6 Noroeste 0 -- -- 81
2020-03-28 07:00:00 1.9 0 Calma 4 Sudoeste 0 -- -- 81
2020-03-28 06:00:00 1.9 4 Sur 9 Sur 0 -- -- 79
2020-03-28 05:00:00 1.9 4 Sur 7 Sudeste 0 -- -- 79
2020-03-28 04:00:00 1.8 5 Sur 6 Sur 0 -- -- 81
2020-03-28 03:00:00 1.4 0 Calma 4 Oeste 0 -- -- 84
2020-03-28 02:00:00 -0.5 2 Nordeste 10 Sur 0 -- -- 90
2020-03-28 01:00:00 -0.2 6 Sur 8 Sur 0 -- -- 87
2020-03-28 00:00:00 -0.2 6 Sur 8 Sur 0 -- -- 87
2020-03-27 23:00:00 0.3 5 Sur 8 Sur 0 -- -- 87
2020-03-27 22:00:00 1 4 Sur 7 Sur 0 -- -- 86
2020-03-27 21:00:00 1.1 4 Sur 8 Sudoeste 0 -- -- 86
2020-03-27 20:00:00 2 4 Sur 17 Este 0 -- -- 81
2020-03-27 19:00:00 4.2 12 Este 19 Nordeste 0 -- -- 72
2020-03-27 18:00:00 6 12 Este 21 Este 0 -- -- 60
2020-03-27 17:00:00 6.1 15 Este 28 Nordeste 0 -- -- 59
2020-03-27 16:00:00 7.2 10 Sudeste 26 Sudeste 0 -- -- 55
2020-03-27 15:00:00 6.7 10 Este 22 Sudeste 0 -- -- 58
2020-03-27 14:00:00 6.2 13 Sudeste 22 Sudeste 0 -- -- 59
2020-03-27 13:00:00 6.1 10 Sudeste 19 Sudeste 0 -- -- 59
2020-03-27 12:00:00 4.9 13 Sudeste 22 Sudeste 0 -- -- 63
2020-03-27 11:00:00 3.9 11 Este 22 Sudeste 0 -- -- 65
2020-03-27 10:00:00 1.7 5 Este 15 Sudeste 0 -- -- 78
2020-03-27 09:00:00 -1.3 4 Este 8 Este 0 -- -- 87
2020-03-27 08:00:00 -3.1 2 Norte 7 Noroeste 0 -- -- 91
2020-03-27 07:00:00 -3.5 6 Oeste 9 Oeste 0 -- -- 86
2020-03-27 06:00:00 -3.2 2 Oeste 8 Oeste 0 -- -- 83
2020-03-27 05:00:00 -4.1 2 Sur 8 Oeste 0 -- -- 85
2020-03-27 04:00:00 -2.8 3 Oeste 8 Norte 0 -- -- 78
2020-03-27 03:00:00 -2.6 2 Noroeste 10 Noroeste 0 -- -- 76
2020-03-27 02:00:00 -2.7 7 Norte 10 Norte 0 -- -- 78
2020-03-27 01:00:00 -2.5 5 Noroeste 9 Norte 0 -- -- 77
2020-03-27 00:00:00 -2.1 5 Noroeste 17 Norte 0 -- -- 75
2020-03-26 23:00:00 -0.9 9 Norte 19 Nordeste 0 -- -- 69
2020-03-26 22:00:00 0 15 Nordeste 28 Norte 0 -- -- 62
2020-03-26 21:00:00 0.5 13 Nordeste 31 Noroeste 0 -- -- 65
2020-03-26 20:00:00 1.1 11 Norte 30 Norte 0 -- -- 67
2020-03-26 19:00:00 2.6 20 Norte 35 Norte 0 -- -- 58
2020-03-26 18:00:00 4.3 23 Norte 43 Norte 0 -- -- 52
2020-03-26 17:00:00 4.8 27 Norte 47 Norte 0 -- -- 52
2020-03-26 16:00:00 4 30 Norte 50 Norte 0 -- -- 56
2020-03-26 15:00:00 3.7 30 Norte 54 Noroeste 0 -- -- 58
2020-03-26 14:00:00 4.6 35 Norte 55 Norte 0.2 -- -- 76
2020-03-26 13:00:00 2.9 34 Norte 59 Norte 0 -- -- 85
2020-03-26 12:00:00 2.3 32 Norte 53 Norte 0 -- -- 79
2020-03-26 11:00:00 2.4 34 Norte 53 Norte 0 -- -- 92
2020-03-26 10:00:00 1.5 30 Norte 45 Norte 0 -- -- 87
2020-03-26 09:00:00 0.4 23 Noroeste 37 Noroeste 0 -- -- 89
2020-03-26 08:00:00 0.6 20 Noroeste 28 Noroeste 0 -- -- 91
2020-03-26 07:00:00 0.5 17 Noroeste 29 Noroeste 0 -- -- 90
2020-03-26 06:00:00 0 13 Noroeste 33 Noroeste 0 -- -- 90
2020-03-26 05:00:00 -1.2 28 Noroeste 38 Norte 0 -- -- 86
2020-03-26 04:00:00 -1.4 16 Norte 30 Norte 0 -- -- 91
2020-03-26 03:00:00 0.5 15 Norte 30 Norte 0 -- -- 88
2020-03-26 02:00:00 2.4 13 Norte 23 Norte 0 -- -- 89
2020-03-26 01:00:00 2.6 8 Noroeste 15 Noroeste 0 -- -- 86
2020-03-26 00:00:00 1.8 8 Noroeste 13 Noroeste 0 -- -- 83
2020-03-25 23:00:00 2.6 6 Noroeste 15 Noroeste 0 -- -- 75
2020-03-25 22:00:00 2 9 Noroeste 15 Noroeste 0 -- -- 77
2020-03-25 21:00:00 2.4 4 Oeste 11 Oeste 0 -- -- 75
2020-03-25 20:00:00 2.5 6 Oeste 13 Oeste 0 -- -- 79
2020-03-25 19:00:00 4.2 2 Nordeste 19 Norte 0 -- -- 76
2020-03-25 18:00:00 6.4 13 Norte 26 Norte 0 -- -- 68
2020-03-25 17:00:00 6.7 15 Norte 24 Norte 0 -- -- 66
2020-03-25 16:00:00 6.9 13 Nordeste 25 Nordeste 0 -- -- 69
2020-03-25 15:00:00 7.2 13 Norte 27 Noroeste 0 -- -- 54
2020-03-25 14:00:00 6.5 10 Nordeste 24 Nordeste 0 -- -- 64
2020-03-25 13:00:00 3.6 14 Nordeste 26 Nordeste 0 -- -- 97
2020-03-25 12:00:00 4.1 15 Nordeste 24 Norte 0 -- -- 91
2020-03-25 11:00:00 3.9 14 Norte 21 Noroeste 0 -- -- 91
2020-03-25 10:00:00 3.9 13 Norte 19 Noroeste 0 -- -- 92
2020-03-25 09:00:00 3.4 10 Norte 21 Oeste 0 -- -- 92
2020-03-25 08:00:00 2.2 18 Oeste 30 Oeste 0 -- -- 93
2020-03-25 07:00:00 1.9 22 Oeste 34 Oeste 0 -- -- 91
2020-03-25 06:00:00 1.8 18 Sudoeste 30 Oeste 0 -- -- 93
2020-03-25 05:00:00 1.5 24 Sudoeste 30 Sudoeste 0 -- -- 95
2020-03-25 04:00:00 1.4 21 Sudoeste 26 Sudoeste 1 -- -- 96
2020-03-25 03:00:00 1.2 13 Sudoeste 18 Sudoeste 0.8 -- -- 95
2020-03-25 02:00:00 1.7 15 Sudoeste 18 Sudoeste 0.8 -- -- 93
2020-03-25 01:00:00 2.6 15 Sudoeste 24 Sudoeste 0 -- -- 87
2020-03-25 00:00:00 2.1 18 Sudoeste 25 Sudoeste 0 -- -- 89
2020-03-24 23:00:00 2 19 Sudoeste 25 Sudoeste 0 -- -- 90
2020-03-24 22:00:00 2.2 18 Sudoeste 22 Sudoeste 0 -- -- 90
2020-03-24 21:00:00 2.1 0 Calma 9 Sur 0 -- -- 90
2020-03-24 20:00:00 2.4 6 Sur 9 Sur 0 -- -- 91
2020-03-24 19:00:00 4.4 9 Sudeste 17 Este 0 -- -- 86
2020-03-24 18:00:00 6.3 10 Sudeste 21 Sudeste 0 -- -- 79
2020-03-24 17:00:00 6.5 14 Sudeste 25 Sudeste 0 -- -- 84
2020-03-24 16:00:00 5.7 13 Este 25 Sudeste 0 -- -- 86
2020-03-24 15:00:00 5.8 13 Este 26 Sudeste 0 -- -- 90
2020-03-24 14:00:00 6 13 Sudeste 27 Sudeste 0 -- -- 90
2020-03-24 13:00:00 7.3 17 Este 32 Sudeste 0 -- -- 86
2020-03-24 12:00:00 5.9 23 Sudeste 33 Sudeste 0 -- -- 90
2020-03-24 11:00:00 4.5 20 Sudeste 33 Este 0 -- -- 99
2020-03-24 10:00:00 4.4 18 Este 32 Este 0 -- -- 98
2020-03-24 09:00:00 4.2 19 Sudeste 34 Sudeste 0 -- -- 98
2020-03-24 08:00:00 4.1 16 Este 34 Sudeste 0 -- -- 99
2020-03-24 07:00:00 4.3 19 Sudeste 34 Sudeste 0 -- -- 98
2020-03-24 06:00:00 4.5 23 Este 40 Sudeste 0.6 -- -- 98
2020-03-24 05:00:00 4.6 17 Este 28 Sudeste 0 -- -- 98
2020-03-24 04:00:00 4.6 21 Sudeste 33 Sudeste 0 -- -- 98
2020-03-24 03:00:00 4.7 17 Sudeste 27 Sudeste 0 -- -- 98
2020-03-24 02:00:00 4.8 17 Sudeste 30 Este 0.2 -- -- 97
2020-03-24 01:00:00 5.1 15 Sudeste 27 Sudeste 0 -- -- 97
2020-03-24 00:00:00 5.4 16 Sudeste 28 Sudeste 0 -- -- 98
2020-03-23 23:00:00 5.3 15 Sudeste 26 Sudeste 0 -- -- 98
2020-03-23 22:00:00 5 10 Sudeste 16 Sudeste 0 -- -- 97
2020-03-23 21:00:00 5.2 11 Sudeste 18 Sudeste 0 -- -- 94
2020-03-23 20:00:00 5.5 12 Sudeste 23 Sudeste 0 -- -- 93
2020-03-23 19:00:00 6.4 14 Este 23 Este 0 -- -- 93
2020-03-23 18:00:00 6.5 16 Sudeste 28 Sudeste 0 -- -- 92
2020-03-23 17:00:00 7.1 17 Este 31 Sudeste 0 -- -- 91
2020-03-23 16:00:00 7.8 14 Este 23 Este 0 -- -- 86
2020-03-23 15:00:00 7.9 15 Este 26 Sudeste 0 -- -- 84
2020-03-23 14:00:00 6.6 15 Este 27 Este 0 -- -- 93
2020-03-23 13:00:00 6.6 18 Sudeste 26 Sudeste 0 -- -- 95
2020-03-23 12:00:00 6.4 15 Este 27 Sudeste 0 -- -- 91
2020-03-23 11:00:00 5.7 18 Sudeste 36 Sudeste 0.2 -- -- 95
2020-03-23 10:00:00 5 16 Sudeste 24 Este 0.2 -- -- 99
2020-03-23 09:00:00 4.5 10 Este 21 Este 0 -- -- 98
2020-03-23 08:00:00 4.5 10 Sudeste 21 Sudeste 0 -- -- 97
2020-03-23 07:00:00 4 13 Sudeste 22 Sudeste 0 -- -- 99
2020-03-23 06:00:00 4 14 Sudeste 23 Sudeste 0 -- -- 99
2020-03-23 05:00:00 4.2 12 Este 18 Sudeste 0 -- -- 99
2020-03-23 04:00:00 4.1 9 Este 15 Sudeste 0 -- -- 99
2020-03-23 03:00:00 4.4 5 Este 14 Sudeste 0 -- -- 98
2020-03-23 02:00:00 4.5 5 Sudeste 9 Sudeste 0 -- -- 98
2020-03-23 01:00:00 4.5 3 Sur 10 Sudeste 0 -- -- 97
2020-03-23 00:00:00 4.3 7 Sur 20 Sudeste 0.2 -- -- 93
2020-03-22 23:00:00 5.1 12 Sudeste 19 Este 0 -- -- 97
2020-03-22 22:00:00 5 6 Sudeste 13 Sur 0 -- -- 96
2020-03-22 21:00:00 5.1 9 Sudeste 18 Este 0 -- -- 95
2020-03-22 20:00:00 5.4 10 Sudeste 16 Sudeste 0 -- -- 96
2020-03-22 19:00:00 5.3 12 Sudeste 19 Sudeste 0 -- -- 94
2020-03-22 18:00:00 5.4 13 Este 21 Este 0 -- -- 95
2020-03-22 17:00:00 6 10 Este 20 Sudeste 0 -- -- 90
2020-03-22 16:00:00 5.8 12 Este 21 Este 0 -- -- 88
2020-03-22 15:00:00 5.9 13 Este 21 Este 0 -- -- 87
2020-03-22 14:00:00 7.6 13 Este 28 Este 0 -- -- 71
2020-03-22 13:00:00 7.9 16 Este 27 Este 0 -- -- 68
2020-03-22 12:00:00 7.4 14 Este 26 Este 0 -- -- 69
2020-03-22 11:00:00 7.5 12 Sudeste 19 Sudeste 0 -- -- 62
2020-03-22 10:00:00 6.5 13 Este 22 Sudeste 0 -- -- 66
2020-03-22 09:00:00 5.8 6 Este 11 Nordeste 0 -- -- 72
2020-03-22 08:00:00 4.5 0 Calma 4 Sudoeste 0 -- -- 85
2020-03-22 07:00:00 3.9 0 Calma 4 Sudoeste 0 -- -- 92
2020-03-22 06:00:00 4.2 3 Sudeste 5 Sur 0 -- -- 92
2020-03-22 05:00:00 4.8 3 Este 8 Este 0 -- -- 91
2020-03-22 04:00:00 5.7 0 Calma 4 Sudeste 0 -- -- 90
2020-03-22 03:00:00 5.6 0 Calma 9 Sudeste 0 -- -- 92
2020-03-22 02:00:00 6 4 Sudeste 12 Sudeste 0 -- -- 89
2020-03-22 01:00:00 5.9 8 Sur 12 Sur 0 -- -- 87
2020-03-22 00:00:00 6 6 Sur 13 Sur 0 -- -- 82
2020-03-21 23:00:00 5.9 9 Sur 13 Sur 0 -- -- 83
2020-03-21 22:00:00 6.1 8 Sudeste 15 Sudeste 0 -- -- 82
2020-03-21 21:00:00 6.4 10 Sudeste 17 Sudeste 0 -- -- 84
2020-03-21 20:00:00 6.7 11 Sudeste 17 Este 0 -- -- 86
2020-03-21 19:00:00 7.1 11 Sudeste 19 Sudeste 0 -- -- 86
2020-03-21 18:00:00 8.3 6 Sudeste 12 Sur 0 -- -- 78
2020-03-21 17:00:00 8.5 10 Sudoeste 22 Sur 0 -- -- 75
2020-03-21 16:00:00 8.7 11 Sur 19 Sudeste 0 -- -- 74
2020-03-21 15:00:00 8.1 5 Sudoeste 14 Sudoeste 0 -- -- 76
2020-03-21 14:00:00 8.1 6 Sur 17 Sudoeste 0 -- -- 74
2020-03-21 13:00:00 7.1 13 Sudoeste 24 Sudoeste 0 -- -- 78
2020-03-21 12:00:00 7.5 12 Sudoeste 27 Sudoeste 0 -- -- 74
2020-03-21 11:00:00 6.9 17 Sudoeste 24 Sudoeste 0 -- -- 74
2020-03-21 10:00:00 8 11 Sur 17 Sur 0 -- -- 73
2020-03-21 09:00:00 6.3 5 Sudeste 12 Sur 0 -- -- 76
2020-03-21 08:00:00 3.1 6 Sudeste 11 Sudeste 0 -- -- 85
2020-03-21 07:00:00 1.2 4 Sudeste 8 Sudeste 0 -- -- 94
2020-03-21 06:00:00 2 3 Nordeste 26 Sudoeste 0 -- -- 92
2020-03-21 05:00:00 2.1 22 Sudoeste 33 Sudoeste 0 -- -- 93
2020-03-21 04:00:00 2.9 26 Sudoeste 40 Sudoeste 0 -- -- 92
2020-03-21 03:00:00 4.1 29 Sudoeste 39 Sudoeste 0 -- -- 93
2020-03-21 02:00:00 4.2 20 Sudoeste 26 Sudoeste 0 -- -- 96
2020-03-21 01:00:00 3.9 7 Sur 10 Sudeste 0 -- -- 92
2020-03-21 00:00:00 3.8 5 Sur 8 Sur 0 -- -- 95
2020-03-20 23:00:00 4.4 4 Sudeste 9 Sudeste 0 -- -- 93
2020-03-20 22:00:00 4.6 7 Sur 12 Sudeste 0 -- -- 95
2020-03-20 21:00:00 4.9 8 Sudeste 17 Sudeste 0 -- -- 94
2020-03-20 20:00:00 5.9 9 Sudeste 19 Sudeste 0 -- -- 91
2020-03-20 19:00:00 7.6 11 Sudeste 19 Sudeste 0 -- -- 85
2020-03-20 18:00:00 8.4 13 Este 23 Sudeste 0 -- -- 82
2020-03-20 17:00:00 9.7 15 Sudeste 24 Este 0 -- -- 79
2020-03-20 16:00:00 10 16 Este 24 Este 0 -- -- 77
2020-03-20 15:00:00 10.9 13 Sudeste 22 Nordeste 0 -- -- 67
2020-03-20 14:00:00 10.6 12 Sudeste 22 Este 0 -- -- 69
2020-03-20 13:00:00 10.2 12 Este 22 Este 0 -- -- 71
2020-03-20 12:00:00 10.7 6 Este 20 Sur 0 -- -- 66
2020-03-20 11:00:00 8.9 10 Sur 19 Sur 0 -- -- 74
2020-03-20 10:00:00 7.3 8 Sur 29 Sudoeste 0 -- -- 83
2020-03-20 09:00:00 4.1 25 Sudoeste 34 Sudoeste 0 -- -- 91
2020-03-20 08:00:00 2.8 22 Sudoeste 29 Sudoeste 0 -- -- 94
2020-03-20 07:00:00 2.1 6 Sur 20 Sudoeste 0 -- -- 94
2020-03-20 06:00:00 2.1 17 Sudoeste 30 Sudoeste 0 -- -- 94
2020-03-20 05:00:00 2.4 25 Sudoeste 30 Sudoeste 0 -- -- 92
2020-03-20 04:00:00 2.6 22 Sudoeste 28 Sudoeste 0 -- -- 93
2020-03-20 03:00:00 2.8 18 Sudoeste 25 Sudoeste 0 -- -- 93
2020-03-20 02:00:00 3.3 3 Este 29 Sudoeste 0 -- -- 94
2020-03-20 01:00:00 3.8 19 Sudoeste 26 Sudoeste 0 -- -- 94
2020-03-20 00:00:00 4.4 6 Sur 12 Sur 0 -- -- 93
2020-03-19 23:00:00 4.7 3 Oeste 7 Sur 0 -- -- 88
2020-03-19 22:00:00 5.1 6 Sur 10 Sur 0 -- -- 87
2020-03-19 21:00:00 5.6 7 Sur 9 Sur 0 -- -- 89
2020-03-19 20:00:00 6 0 Calma 12 Sudeste 0 -- -- 92
2020-03-19 19:00:00 7.9 9 Sudeste 21 Este 0 -- -- 84
2020-03-19 18:00:00 9.6 16 Sudeste 27 Sudeste 0 -- -- 75
2020-03-19 17:00:00 10.8 17 Sudeste 27 Este 0 -- -- 70
2020-03-19 16:00:00 11.7 18 Sudeste 27 Sudeste 0 -- -- 63
2020-03-19 15:00:00 12.3 16 Sudeste 25 Este 0 -- -- 50
2020-03-19 14:00:00 12.2 13 Este 23 Este 0 -- -- 51
2020-03-19 13:00:00 11.9 13 Este 26 Este 0 -- -- 50
2020-03-19 12:00:00 11.5 13 Sudeste 23 Sudeste 0 -- -- 33
2020-03-19 11:00:00 10.7 13 Sudeste 22 Sudeste 0 -- -- 37
2020-03-19 10:00:00 7.7 13 Sudeste 19 Sudeste 0 -- -- 48
2020-03-19 09:00:00 6.3 12 Sudeste 18 Sudeste 0 -- -- 46
2020-03-19 08:00:00 5.1 12 Sur 19 Sur 0 -- -- 43
2020-03-19 07:00:00 4.7 13 Sur 19 Sur 0 -- -- 44
2020-03-19 06:00:00 4.5 12 Sur 16 Sudeste 0 -- -- 54
2020-03-19 05:00:00 5.3 10 Sur 14 Sur 0 -- -- 57
2020-03-19 04:00:00 4.2 9 Sudeste 14 Sur 0 -- -- 65
2020-03-19 03:00:00 4.7 11 Sur 16 Sur 0 -- -- 66
2020-03-19 02:00:00 5 12 Sur 15 Sur 0 -- -- 71
2020-03-19 01:00:00 5.5 11 Sur 15 Sudeste 0 -- -- 93
2020-03-19 00:00:00 5.7 11 Sur 17 Sudeste 0 -- -- 92
2020-03-18 23:00:00 6.6 13 Sur 18 Sudeste 0 -- -- 91
2020-03-18 22:00:00 5.9 8 Sur 13 Sudeste 0 -- -- 99
2020-03-18 21:00:00 7.3 10 Sudeste 16 Sudeste 0 -- -- 98
2020-03-18 20:00:00 8 6 Sudeste 15 Sudeste 0 -- -- 96
2020-03-18 19:00:00 8.4 10 Sudeste 15 Este 0 -- -- 95
2020-03-18 18:00:00 9.4 9 Este 17 Este 0 -- -- 90
2020-03-18 17:00:00 11.1 10 Este 19 Este 0 -- -- 73
2020-03-18 16:00:00 12.1 10 Este 18 Sudeste 0 -- -- 69
2020-03-18 15:00:00 11.8 11 Sudeste 24 Sudeste 0 -- -- 67
2020-03-18 14:00:00 11.5 14 Sudeste 23 Sudeste 0 -- -- 67
2020-03-18 13:00:00 9.8 11 Sudeste 24 Sudeste 0 -- -- 78
2020-03-18 12:00:00 9.5 14 Sudeste 26 Sudeste 0 -- -- 78
2020-03-18 11:00:00 9.1 17 Sudeste 26 Sudeste 0 -- -- 69
2020-03-18 10:00:00 8 15 Sudeste 24 Sudeste 0 -- -- 76
2020-03-18 09:00:00 6.4 12 Sudeste 17 Sudeste 0 -- -- 75
2020-03-18 08:00:00 5.1 12 Sur 18 Sur 0 -- -- 80
2020-03-18 07:00:00 4.8 12 Sur 18 Sur 0 -- -- 82
2020-03-18 06:00:00 5 11 Sur 15 Sur 0 -- -- 85
2020-03-18 05:00:00 4.4 7 Sur 10 Sur 0 -- -- 91
2020-03-18 04:00:00 4.9 6 Sur 18 Sur 0 -- -- 92
2020-03-18 03:00:00 5 10 Sudeste 15 Sur 0 -- -- 93
2020-03-18 02:00:00 4.9 11 Sur 17 Sur 0 -- -- 99
2020-03-18 01:00:00 5.3 10 Sudeste 21 Sudeste 0 -- -- 100
2020-03-18 00:00:00 5.5 13 Sudeste 22 Sudeste 0 -- -- 100
2020-03-17 23:00:00 5.8 13 Sudeste 22 Sudeste 0 -- -- 100
2020-03-17 22:00:00 6.2 13 Sudeste 20 Sudeste 0 -- -- 100
2020-03-17 21:00:00 6.2 15 Sudeste 25 Sudeste 0 -- -- 100
2020-03-17 20:00:00 6.7 16 Sudeste 31 Sudeste 0 -- -- 100
2020-03-17 19:00:00 6.9 18 Sudeste 31 Sudeste 0 -- -- 100
2020-03-17 18:00:00 7.1 17 Sudeste 37 Sudeste 0 -- -- 100
2020-03-17 17:00:00 7.5 23 Sudeste 38 Sudeste 0 -- -- 100
2020-03-17 16:00:00 7.1 24 Sudeste 38 Sudeste 0.2 -- -- 100
2020-03-17 15:00:00 7.3 20 Este 33 Sudeste 0.4 -- -- 100
2020-03-17 14:00:00 7.4 18 Este 33 Sudeste 0.2 -- -- 100
2020-03-17 13:00:00 7.4 18 Sudeste 32 Sudeste 0.4 -- -- 100
2020-03-17 12:00:00 7.1 19 Sudeste 37 Este 0 -- -- 100
2020-03-17 11:00:00 6.3 13 Este 25 Sudeste 0.2 -- -- 100
2020-03-17 10:00:00 6.7 19 Este 35 Sudeste 0 -- -- 100
2020-03-17 09:00:00 6.5 21 Este 37 Sudeste 0 -- -- 100
2020-03-17 08:00:00 6.2 18 Este 29 Este 0.8 -- -- 100
2020-03-17 07:00:00 5.8 14 Este 24 Este 1 -- -- 100
2020-03-17 06:00:00 5.7 15 Este 24 Este 2 -- -- 100
2020-03-17 05:00:00 5.8 13 Este 27 Sudeste 2.6 -- -- 100
2020-03-17 04:00:00 5.4 13 Este 26 Este 1 -- -- 100
2020-03-17 03:00:00 5.3 10 Este 24 Este 2 -- -- 100
2020-03-17 02:00:00 5.3 17 Nordeste 26 Nordeste 0.8 -- -- 100
2020-03-17 01:00:00 5.1 7 Este 21 Este 0.2 -- -- 100
2020-03-17 00:00:00 4.7 10 Este 24 Este 0.2 -- -- 100
2020-03-16 23:00:00 4.3 6 Sudeste 12 Sudeste 0.2 -- -- 100
2020-03-16 22:00:00 4 3 Este 10 Sudeste 0 -- -- 100
2020-03-16 21:00:00 3.6 5 Nordeste 12 Nordeste 0 -- -- 100
2020-03-16 20:00:00 3.1 0 Calma 8 Oeste 0 -- -- 100
2020-03-16 19:00:00 1.9 3 Norte 8 Norte 0.2 -- -- 100
2020-03-16 18:00:00 0.4 11 Oeste 39 Sudoeste 2.2 -- -- 100
2020-03-16 17:00:00 2.5 4 Nordeste 13 Nordeste 0.8 -- -- 100
2020-03-16 16:00:00 2 3 Sur 22 Nordeste 1 -- -- 100
2020-03-16 15:00:00 1.9 12 Nordeste 18 Nordeste 0.4 -- -- 100
2020-03-16 14:00:00 2.5 3 Nordeste 6 Noroeste 1.8 -- -- 99
2020-03-16 13:00:00 1.5 7 Noroeste 10 Noroeste 1.2 -- -- 99
2020-03-16 12:00:00 0.7 6 Oeste 9 Oeste 5.4 -- -- 100
2020-03-16 11:00:00 1.5 6 Norte 22 Nordeste 2.6 -- -- 99
2020-03-16 10:00:00 3.3 12 Este 27 Este 0.2 -- -- 98
2020-03-16 09:00:00 5.3 15 Este 26 Este 0 -- -- 99
2020-03-16 08:00:00 5.5 13 Este 24 Este 0 -- -- 98
2020-03-16 07:00:00 5.4 10 Sudeste 16 Sudeste 0 -- -- 98
2020-03-16 06:00:00 5 7 Sudeste 14 Sudeste 0 -- -- 98
2020-03-16 05:00:00 5.2 9 Sudeste 23 Sudeste 0.4 -- -- 96
2020-03-16 04:00:00 5.6 16 Sudeste 26 Sur 0.2 -- -- 95
2020-03-16 03:00:00 5.6 12 Sur 26 Sudoeste 1.8 -- -- 93
2020-03-16 02:00:00 5.1 12 Sudoeste 17 Sudoeste 1.4 -- -- 95
2020-03-16 01:00:00 4.9 2 Norte 23 Oeste 1 -- -- 94
2020-03-16 00:00:00 5.3 18 Oeste 36 Noroeste 2.8 -- -- 93
2020-03-15 23:00:00 7.3 21 Sur 46 Sur 0 -- -- 82
2020-03-15 22:00:00 7.5 26 Sur 40 Sur 0 -- -- 83
2020-03-15 21:00:00 8.2 26 Sur 38 Sur 0 -- -- 81
2020-03-15 20:00:00 9.1 19 Sudoeste 43 Sudoeste 0 -- -- 75
2020-03-15 19:00:00 11.9 20 Sudoeste 34 Sudoeste 0 -- -- 66
2020-03-15 18:00:00 12.4 8 Sudoeste 35 Sudoeste 0 -- -- 65
2020-03-15 17:00:00 13.5 15 Sudoeste 36 Sudoeste 0.2 -- -- 61
2020-03-15 16:00:00 14.8 18 Sur 37 Sudoeste 0 -- -- 53
2020-03-15 15:00:00 15.9 23 Sur 42 Sudoeste 0 -- -- 54
2020-03-15 14:00:00 15.1 23 Sur 45 Sur 0 -- -- 60
2020-03-15 13:00:00 16.5 18 Sur 43 Sur 0 -- -- 52
2020-03-15 12:00:00 15.7 21 Sudoeste 40 Sudoeste 0 -- -- 59
2020-03-15 11:00:00 14.8 18 Sudoeste 32 Sudoeste 0 -- -- 63
2020-03-15 10:00:00 12.4 19 Sudoeste 33 Sudoeste 0 -- -- 71
2020-03-15 09:00:00 10.9 25 Sudoeste 34 Sudoeste 0 -- -- 77
2020-03-15 08:00:00 7.8 28 Sudoeste 35 Sudoeste 0 -- -- 84
2020-03-15 07:00:00 6.2 28 Sudoeste 33 Sudoeste 0 -- -- 85
2020-03-15 06:00:00 6.8 21 Sudoeste 33 Sudoeste 0 -- -- 88
2020-03-15 05:00:00 6.7 23 Sudoeste 27 Sudoeste 0 -- -- 91
2020-03-15 04:00:00 6.7 23 Sudoeste 25 Sudoeste 0 -- -- 90
2020-03-15 03:00:00 6.8 12 Sudoeste 17 Sudoeste 0 -- -- 86
2020-03-15 02:00:00 6.7 3 Noroeste 12 Oeste 0 -- -- 72
2020-03-15 01:00:00 6.8 3 Sur 7 Sur 0 -- -- 41
2020-03-15 00:00:00 6.5 3 Sudeste 6 Sudeste 0 -- -- 38
2020-03-14 23:00:00 5.8 5 Sur 10 Sur 0 -- -- 44
2020-03-14 22:00:00 6.5 4 Sur 9 Sur 0 -- -- 41
2020-03-14 21:00:00 7.6 5 Sur 8 Sur 0 -- -- 37
2020-03-14 20:00:00 7.1 6 Sur 10 Sur 0 -- -- 43
2020-03-14 19:00:00 8.1 6 Sudeste 13 Nordeste 0 -- -- 41
2020-03-14 18:00:00 11.7 9 Este 21 Nordeste 0 -- -- 31
2020-03-14 17:00:00 12.4 13 Nordeste 23 Nordeste 0 -- -- 33
2020-03-14 16:00:00 12.9 13 Nordeste 23 Nordeste 0 -- -- 34
2020-03-14 15:00:00 13.9 13 Este 23 Este 0 -- -- 33
2020-03-14 14:00:00 14.4 9 Nordeste 18 Norte 0 -- -- 33
2020-03-14 13:00:00 14.1 8 Norte 14 Nordeste 0 -- -- 38
2020-03-14 12:00:00 12.6 7 Norte 16 Norte 0 -- -- 39
2020-03-14 11:00:00 10.7 10 Norte 16 Norte 0 -- -- 51
2020-03-14 10:00:00 9.1 9 Norte 18 Noroeste 0 -- -- 60
2020-03-14 09:00:00 6.8 10 Norte 18 Noroeste 0 -- -- 91
2020-03-14 08:00:00 4.8 9 Noroeste 12 Oeste 0 -- -- 97
2020-03-14 07:00:00 3.2 4 Norte 10 Norte 0 -- -- 96
2020-03-14 06:00:00 4.5 5 Noroeste 10 Oeste 0 -- -- 95
2020-03-14 05:00:00 4.3 5 Noroeste 9 Noroeste 0 -- -- 97
2020-03-14 04:00:00 4.7 3 Noroeste 13 Noroeste 0 -- -- 96
2020-03-14 03:00:00 4.5 4 Noroeste 14 Oeste 0 -- -- 95
2020-03-14 02:00:00 4.5 4 Sudoeste 9 Sudoeste 0 -- -- 95
2020-03-14 01:00:00 5.1 5 Sudoeste 8 Sudoeste 0 -- -- 95
2020-03-14 00:00:00 5 3 Oeste 7 Sudoeste 0 -- -- 93
2020-03-13 23:00:00 4.7 4 Este 8 Sur 0 -- -- 93
2020-03-13 22:00:00 5.1 4 Sudoeste 9 Noroeste 0 -- -- 91
2020-03-13 21:00:00 5.2 7 Noroeste 15 Norte 0 -- -- 90
2020-03-13 20:00:00 6.5 3 Oeste 17 Nordeste 0 -- -- 89
2020-03-13 19:00:00 8 9 Nordeste 19 Nordeste 0 -- -- 81
2020-03-13 18:00:00 9.8 12 Nordeste 19 Nordeste 0 -- -- 74
2020-03-13 17:00:00 11.1 10 Nordeste 21 Nordeste 0 -- -- 70
2020-03-13 16:00:00 10.8 14 Nordeste 21 Nordeste 0 -- -- 70
2020-03-13 15:00:00 11.1 13 Nordeste 24 Nordeste 0 -- -- 69
2020-03-13 14:00:00 12.9 10 Este 26 Este 0 -- -- 68
2020-03-13 13:00:00 12.7 7 Este 14 Sudeste 0 -- -- 68
2020-03-13 12:00:00 12 9 Sudeste 15 Sudeste 0 -- -- 72
2020-03-13 11:00:00 9.4 6 Nordeste 13 Nordeste 0 -- -- 76
2020-03-13 10:00:00 7.4 5 Norte 15 Norte 0 -- -- 86
2020-03-13 09:00:00 7.8 2 Nordeste 4 Nordeste 0 -- -- 90
2020-03-13 08:00:00 5.1 2 Sudoeste 13 Noroeste 0 -- -- 95
2020-03-13 07:00:00 5.6 5 Norte 11 Noroeste 0 -- -- 93
2020-03-13 06:00:00 5.8 6 Noroeste 21 Noroeste 0 -- -- 94
2020-03-13 05:00:00 5.9 3 Noroeste 22 Norte 0 -- -- 95
2020-03-13 04:00:00 5.4 6 Noroeste 15 Norte 0 -- -- 98
2020-03-13 03:00:00 5.5 9 Noroeste 13 Noroeste 0 -- -- 97
2020-03-13 02:00:00 6.9 3 Sur 9 Sur 0 -- -- 96
2020-03-13 01:00:00 7.3 4 Sur 10 Sudeste 0 -- -- 95
2020-03-13 00:00:00 8 3 Sudeste 11 Sudeste 0 -- -- 89
2020-03-12 23:00:00 10.3 7 Sur 12 Sudeste 0 -- -- 78
2020-03-12 22:00:00 11.3 8 Sudeste 10 Sudeste 0 -- -- 74
2020-03-12 21:00:00 11.4 5 Sur 8 Nordeste 0 -- -- 79
2020-03-12 20:00:00 13.9 2 Noroeste 16 Nordeste 0 -- -- 66
2020-03-12 19:00:00 15.5 6 Norte 15 Este 0 -- -- 54
2020-03-12 18:00:00 17.6 4 Sudeste 10 Sudeste 0 -- -- 52
2020-03-12 17:00:00 18.4 9 Sudeste 13 Sudeste 0 -- -- 50
2020-03-12 16:00:00 18.6 7 Este 22 Este 0 -- -- 49
2020-03-12 15:00:00 20.3 15 Este 22 Este 0 -- -- 44
2020-03-12 14:00:00 23.6 12 Sudoeste 24 Oeste 0 -- -- 31
2020-03-12 13:00:00 23 9 Sudoeste 21 Noroeste 0 -- -- 32
2020-03-12 12:00:00 22.4 12 Oeste 23 Oeste 0 -- -- 32
2020-03-12 11:00:00 21.9 9 Sudoeste 19 Sudoeste 0 -- -- 36
2020-03-12 10:00:00 20.4 13 Oeste 21 Sudoeste 0 -- -- 41
2020-03-12 09:00:00 17.4 12 Oeste 23 Sudoeste 0 -- -- 48
2020-03-12 08:00:00 13.2 22 Sudoeste 27 Sudoeste 0 -- -- 54
2020-03-12 07:00:00 12.4 22 Oeste 27 Sudoeste 0 -- -- 57
2020-03-12 06:00:00 10.6 25 Sudoeste 27 Sudoeste 0 -- -- 64
2020-03-12 05:00:00 10.9 22 Sudoeste 24 Sudoeste 0 -- -- 64
2020-03-12 04:00:00 11 18 Oeste 23 Oeste 0 -- -- 65
2020-03-12 03:00:00 11.8 8 Oeste 18 Sudoeste 0 -- -- 62
2020-03-12 02:00:00 12.9 2 Sur 5 Oeste 0 -- -- 56
2020-03-12 01:00:00 13.7 2 Oeste 22 Sudoeste 0 -- -- 53
2020-03-12 00:00:00 11.1 17 Sudoeste 19 Oeste 0 -- -- 63
2020-03-11 23:00:00 12.1 15 Oeste 18 Sudoeste 0 -- -- 59
2020-03-11 22:00:00 13.9 2 Oeste 11 Noroeste 0 -- -- 50
2020-03-11 21:00:00 15.3 4 Noroeste 14 Noroeste 0 -- -- 47
2020-03-11 20:00:00 15.7 12 Noroeste 15 Oeste 0 -- -- 48
2020-03-11 19:00:00 16.1 10 Noroeste 14 Noroeste 0 -- -- 48
2020-03-11 18:00:00 18.6 8 Noroeste 24 Noroeste 0 -- -- 44
2020-03-11 17:00:00 20.3 19 Noroeste 32 Noroeste 0 -- -- 37
2020-03-11 16:00:00 20.5 18 Noroeste 30 Noroeste 0 -- -- 35
2020-03-11 15:00:00 20.4 16 Noroeste 31 Norte 0 -- -- 35
2020-03-11 14:00:00 19.7 18 Noroeste 28 Noroeste 0 -- -- 34
2020-03-11 13:00:00 18.9 20 Noroeste 33 Noroeste 0 -- -- 36
2020-03-11 12:00:00 17.4 22 Noroeste 31 Norte 0 -- -- 36
2020-03-11 11:00:00 17.1 18 Noroeste 36 Noroeste 0 -- -- 28
2020-03-11 10:00:00 14.9 23 Noroeste 35 Noroeste 0 -- -- 37
2020-03-11 09:00:00 13.8 14 Norte 29 Noroeste 0 -- -- 42
2020-03-11 08:00:00 11.2 17 Noroeste 32 Noroeste 0 -- -- 46
2020-03-11 07:00:00 10.7 21 Oeste 34 Oeste 0 -- -- 64
2020-03-11 06:00:00 10.6 22 Oeste 32 Oeste 0 -- -- 70
2020-03-11 05:00:00 11.7 21 Oeste 36 Oeste 0 -- -- 67
2020-03-11 04:00:00 10.4 19 Oeste 35 Noroeste 0 -- -- 70
2020-03-11 03:00:00 11.8 18 Noroeste 35 Noroeste 0 -- -- 66
2020-03-11 02:00:00 11.7 21 Noroeste 33 Noroeste 0 -- -- 65
2020-03-11 01:00:00 11.6 18 Noroeste 31 Noroeste 0 -- -- 64
2020-03-11 00:00:00 11.6 17 Noroeste 28 Noroeste 0 -- -- 63
2020-03-10 23:00:00 12.3 16 Noroeste 27 Noroeste 0 -- -- 60
2020-03-10 22:00:00 11.9 13 Noroeste 28 Noroeste 0 -- -- 60
2020-03-10 21:00:00 12.9 15 Noroeste 28 Noroeste 0 -- -- 56
2020-03-10 20:00:00 12.6 16 Noroeste 23 Noroeste 0 -- -- 59
2020-03-10 19:00:00 13.9 13 Noroeste 25 Noroeste 0 -- -- 53
2020-03-10 18:00:00 16.5 19 Noroeste 32 Noroeste 0 -- -- 45
2020-03-10 17:00:00 17.7 14 Noroeste 27 Noroeste 0 -- -- 44
2020-03-10 16:00:00 17.1 13 Oeste 26 Sudoeste 0 -- -- 44
2020-03-10 15:00:00 16.2 13 Noroeste 31 Noroeste 0 -- -- 46
2020-03-10 14:00:00 16.1 22 Noroeste 34 Noroeste 0 -- -- 43
2020-03-10 13:00:00 13.6 27 Noroeste 33 Noroeste 0 -- -- 48
2020-03-10 12:00:00 11.8 22 Norte 33 Noroeste 0 -- -- 53
2020-03-10 11:00:00 9.4 24 Noroeste 38 Noroeste 0 -- -- 61
2020-03-10 10:00:00 7.7 23 Noroeste 35 Noroeste 0 -- -- 67
2020-03-10 09:00:00 5.5 22 Noroeste 35 Noroeste 0 -- -- 73
2020-03-10 08:00:00 4.2 12 Norte 24 Noroeste 0 -- -- 74
2020-03-10 07:00:00 3.2 5 Norte 14 Norte 0 -- -- 73
2020-03-10 06:00:00 2.8 4 Norte 22 Noroeste 0 -- -- 74
2020-03-10 05:00:00 2.5 6 Norte 30 Oeste 0 -- -- 76
2020-03-10 04:00:00 3.3 11 Noroeste 32 Noroeste 0 -- -- 72
2020-03-10 03:00:00 2.8 19 Noroeste 44 Norte 0 -- -- 77
2020-03-10 02:00:00 2.6 26 Noroeste 37 Noroeste 0 -- -- 79
2020-03-10 01:00:00 3 27 Norte 38 Noroeste 0 -- -- 78
2020-03-10 00:00:00 2.5 19 Norte 30 Noroeste 0 -- -- 84
2020-03-09 23:00:00 2.5 24 Norte 33 Norte 0 -- -- 87
2020-03-09 22:00:00 2.8 22 Norte 46 Norte 0 -- -- 86
2020-03-09 21:00:00 2.9 26 Norte 54 Norte 0 -- -- 91
2020-03-09 20:00:00 3.6 33 Norte 45 Norte 0 -- -- 87
2020-03-09 19:00:00 4.2 21 Norte 37 Norte 0 -- -- 82
2020-03-09 18:00:00 5.6 25 Norte 38 Norte 0 -- -- 77
2020-03-09 17:00:00 7.4 24 Norte 39 Norte 0 -- -- 64
2020-03-09 16:00:00 7.8 24 Norte 43 Norte 0 -- -- 64
2020-03-09 15:00:00 8.4 27 Norte 41 Norte 0 -- -- 65
2020-03-09 14:00:00 8 27 Norte 39 Norte 0 -- -- 62
2020-03-09 13:00:00 7.7 27 Noroeste 46 Noroeste 0 -- -- 62
2020-03-09 12:00:00 7.3 28 Noroeste 41 Noroeste 0 -- -- 65
2020-03-09 11:00:00 5.7 25 Norte 36 Noroeste 0 -- -- 77
2020-03-09 10:00:00 4.6 22 Norte 32 Noroeste 0 -- -- 88
2020-03-09 09:00:00 3.5 18 Norte 30 Norte 0 -- -- 99
2020-03-09 08:00:00 2.7 21 Norte 30 Norte 0 -- -- 99
2020-03-09 07:00:00 3.1 21 Norte 29 Norte 0 -- -- 99
2020-03-09 06:00:00 3.2 22 Norte 32 Noroeste 0 -- -- 98
2020-03-09 05:00:00 4.5 24 Noroeste 39 Noroeste 0 -- -- 94
2020-03-09 04:00:00 4.9 24 Noroeste 39 Noroeste 0 -- -- 92
2020-03-09 03:00:00 5.1 18 Noroeste 32 Noroeste 0 -- -- 92
2020-03-09 02:00:00 5.5 26 Noroeste 36 Noroeste 0 -- -- 89
2020-03-09 01:00:00 6.2 26 Noroeste 48 Noroeste 0 -- -- 86
2020-03-09 00:00:00 6.4 30 Noroeste 46 Noroeste 0 -- -- 79
2020-03-08 23:00:00 6.7 25 Oeste 37 Oeste 0 -- -- 66
2020-03-08 22:00:00 7.8 26 Oeste 44 Oeste 0 -- -- 59
2020-03-08 21:00:00 8.4 30 Oeste 44 Noroeste 0 -- -- 59
2020-03-08 20:00:00 8.1 18 Noroeste 28 Noroeste 0 -- -- 64
2020-03-08 19:00:00 8.6 16 Norte 33 Noroeste 0 -- -- 63
2020-03-08 18:00:00 9.8 19 Noroeste 33 Noroeste 0 -- -- 55
2020-03-08 17:00:00 10.8 24 Noroeste 36 Noroeste 0 -- -- 49
2020-03-08 16:00:00 11.1 19 Norte 31 Noroeste 0 -- -- 49
2020-03-08 15:00:00 11.4 22 Norte 35 Noroeste 0 -- -- 51
2020-03-08 14:00:00 11.7 21 Noroeste 37 Oeste 0 -- -- 46
2020-03-08 13:00:00 11.7 20 Noroeste 38 Noroeste 0 -- -- 45
2020-03-08 12:00:00 10 8 Oeste 35 Noroeste 0 -- -- 53
2020-03-08 11:00:00 7 28 Noroeste 45 Noroeste 0 -- -- 71
2020-03-08 10:00:00 6.5 27 Oeste 46 Oeste 0 -- -- 67
2020-03-08 09:00:00 5.5 23 Noroeste 44 Oeste 0 -- -- 74
2020-03-08 08:00:00 3.6 23 Noroeste 39 Oeste 0 -- -- 80
2020-03-08 07:00:00 2.8 13 Noroeste 37 Oeste 0 -- -- 81
2020-03-08 06:00:00 3 21 Oeste 33 Noroeste 0 -- -- 86
2020-03-08 05:00:00 3.1 21 Noroeste 33 Noroeste 0 -- -- 88
2020-03-08 04:00:00 2.3 8 Norte 30 Noroeste 0 -- -- 87
2020-03-08 03:00:00 3.1 12 Oeste 26 Oeste 0 -- -- 84
2020-03-08 02:00:00 2.7 15 Sudoeste 42 Oeste 0 -- -- 88
2020-03-08 01:00:00 4.7 36 Oeste 48 Oeste 0 -- -- 80
2020-03-08 00:00:00 3.5 21 Oeste 36 Noroeste 0 -- -- 86
2020-03-07 23:00:00 3 15 Noroeste 27 Noroeste 0 -- -- 87
2020-03-07 22:00:00 3.8 23 Noroeste 39 Noroeste 0 -- -- 83
2020-03-07 21:00:00 3.4 14 Noroeste 32 Norte 0 -- -- 86
2020-03-07 20:00:00 3.9 21 Noroeste 30 Noroeste 0 -- -- 87
2020-03-07 19:00:00 4.4 19 Noroeste 42 Norte 0 -- -- 84
2020-03-07 18:00:00 5.8 35 Norte 52 Noroeste 0 -- -- 76
2020-03-07 17:00:00 6.8 42 Norte 62 Noroeste 0 -- -- 73
2020-03-07 16:00:00 7 30 Norte 64 Norte 0 -- -- 77
2020-03-07 15:00:00 7.1 39 Norte 64 Norte 0 -- -- 76
2020-03-07 14:00:00 6.3 43 Norte 62 Norte 0 -- -- 77
2020-03-07 13:00:00 4.5 35 Noroeste 49 Noroeste 0 -- -- 98
2020-03-07 12:00:00 3.1 36 Noroeste 47 Noroeste 0 -- -- 99
2020-03-07 11:00:00 0.9 26 Noroeste 43 Noroeste 0.2 -- -- 99
2020-03-07 10:00:00 0 26 Noroeste 37 Noroeste 0.2 -- -- 98
2020-03-07 09:00:00 -0.6 19 Noroeste 33 Noroeste 0 -- -- 98
2020-03-07 08:00:00 -0.9 21 Noroeste 28 Noroeste 0 -- -- 96
2020-03-07 07:00:00 -0.2 17 Noroeste 28 Noroeste 0 -- -- 86
2020-03-07 06:00:00 -0.2 14 Noroeste 37 Noroeste 0 -- -- 91
2020-03-07 05:00:00 -0.3 26 Noroeste 39 Noroeste 0 -- -- 91
2020-03-07 04:00:00 -0.4 24 Noroeste 37 Noroeste 0 -- -- 92
2020-03-07 03:00:00 -0.5 28 Noroeste 37 Noroeste 0 -- -- 91
2020-03-07 02:00:00 -0.1 27 Noroeste 50 Norte 0 -- -- 82
2020-03-07 01:00:00 -0.3 29 Norte 50 Norte 0 -- -- 81
2020-03-07 00:00:00 -0.6 25 Norte 44 Noroeste 0 -- -- 85
2020-03-06 23:00:00 0 30 Noroeste 53 Norte 0 -- -- 85
2020-03-06 22:00:00 0.1 32 Noroeste 49 Noroeste 0 -- -- 81
2020-03-06 21:00:00 1 33 Norte 52 Noroeste 0 -- -- 73
2020-03-06 20:00:00 1.3 40 Noroeste 66 Noroeste 0 -- -- 69
2020-03-06 19:00:00 1.9 37 Norte 67 Norte 0 -- -- 63
2020-03-06 18:00:00 2.5 35 Norte 75 Noroeste 0 -- -- 62
2020-03-06 17:00:00 3.3 40 Noroeste 55 Norte 0 -- -- 61
2020-03-06 16:00:00 3.5 39 Norte 55 Noroeste 0 -- -- 61
2020-03-06 15:00:00 3.4 31 Norte 56 Noroeste 0.2 -- -- 66
2020-03-06 14:00:00 3.2 40 Noroeste 63 Noroeste 0 -- -- 86
2020-03-06 13:00:00 0.6 24 Noroeste 59 Noroeste 0.6 -- -- 94
2020-03-06 12:00:00 4.2 37 Noroeste 65 Noroeste 0 -- -- 67
2020-03-06 11:00:00 2.6 37 Noroeste 70 Noroeste 0 -- -- 77
2020-03-06 10:00:00 2.2 39 Noroeste 64 Oeste 0 -- -- 80
2020-03-06 09:00:00 2.2 32 Oeste 51 Oeste 0 -- -- 86
2020-03-06 08:00:00 1.3 28 Oeste 46 Oeste 0 -- -- 91
2020-03-06 07:00:00 1.3 24 Oeste 42 Oeste 0 -- -- 89
2020-03-06 06:00:00 1.4 30 Oeste 50 Oeste 0 -- -- 86
2020-03-06 05:00:00 1.4 26 Noroeste 44 Noroeste 0 -- -- 86
2020-03-06 04:00:00 1.3 28 Noroeste 56 Noroeste 0 -- -- 85
2020-03-06 03:00:00 1.9 30 Noroeste 56 Noroeste 0 -- -- 85
2020-03-06 02:00:00 3.1 27 Noroeste 42 Oeste 0.2 -- -- 90
2020-03-06 01:00:00 2.9 27 Noroeste 43 Noroeste 0 -- -- 93
2020-03-06 00:00:00 2.4 19 Noroeste 40 Noroeste 0 -- -- 95
2020-03-05 23:00:00 2.9 29 Noroeste 57 Noroeste 0.4 -- -- 97
2020-03-05 22:00:00 3.4 27 Noroeste 60 Noroeste 0.4 -- -- 96
2020-03-05 21:00:00 4 33 Noroeste 57 Noroeste 0 -- -- 93
2020-03-05 20:00:00 6.5 27 Noroeste 44 Noroeste 0 -- -- 69
2020-03-05 19:00:00 7 24 Noroeste 54 Noroeste 0 -- -- 67
2020-03-05 18:00:00 7.7 34 Noroeste 62 Noroeste 0 -- -- 63
2020-03-05 17:00:00 8.9 37 Noroeste 78 Noroeste 0 -- -- 56
2020-03-05 16:00:00 9.6 35 Noroeste 66 Noroeste 0 -- -- 57
2020-03-05 15:00:00 8.2 34 Noroeste 56 Noroeste 0.6 -- -- 73
2020-03-05 14:00:00 5.7 33 Noroeste 68 Noroeste 0.8 -- -- 95
2020-03-05 13:00:00 9.5 23 Noroeste 52 Oeste 0 -- -- 78
2020-03-05 12:00:00 8.5 25 Noroeste 55 Oeste 0 -- -- 84
2020-03-05 11:00:00 9 30 Oeste 66 Oeste 0 -- -- 83
2020-03-05 10:00:00 8.2 25 Oeste 54 Oeste 0 -- -- 85
2020-03-05 09:00:00 6.9 12 Oeste 44 Sudoeste 0 -- -- 87
2020-03-05 08:00:00 6.6 31 Oeste 44 Sudoeste 0 -- -- 89
2020-03-05 07:00:00 6.5 30 Oeste 51 Oeste 0 -- -- 89
2020-03-05 06:00:00 5.9 35 Oeste 57 Oeste 0 -- -- 91
2020-03-05 05:00:00 5.8 33 Oeste 51 Oeste 0 -- -- 89
2020-03-05 04:00:00 6.2 26 Oeste 46 Oeste 0 -- -- 84
2020-03-05 03:00:00 6 24 Oeste 48 Oeste 0 -- -- 85
2020-03-05 02:00:00 6.4 23 Oeste 47 Oeste 0 -- -- 83
2020-03-05 01:00:00 6.6 14 Oeste 36 Oeste 0 -- -- 82
2020-03-05 00:00:00 6.8 3 Sudoeste 34 Noroeste 0 -- -- 78
2020-03-04 23:00:00 8.4 26 Oeste 42 Noroeste 0 -- -- 72
2020-03-04 22:00:00 8.3 28 Noroeste 48 Noroeste 0 -- -- 73
2020-03-04 21:00:00 8.3 30 Noroeste 49 Noroeste 0 -- -- 74
2020-03-04 20:00:00 8.3 30 Noroeste 45 Noroeste 0 -- -- 75
2020-03-04 19:00:00 9.1 24 Noroeste 39 Noroeste 0 -- -- 73
2020-03-04 18:00:00 10.6 23 Noroeste 48 Noroeste 0 -- -- 67
2020-03-04 17:00:00 12.7 29 Noroeste 45 Noroeste 0 -- -- 61
2020-03-04 16:00:00 12.8 27 Noroeste 50 Noroeste 0 -- -- 64
2020-03-04 15:00:00 12.7 33 Noroeste 47 Noroeste 0 -- -- 61
2020-03-04 14:00:00 12.3 30 Noroeste 44 Noroeste 0 -- -- 65
2020-03-04 13:00:00 11.6 23 Noroeste 39 Noroeste 0 -- -- 73
2020-03-04 12:00:00 10.7 26 Noroeste 40 Noroeste 0 -- -- 79
2020-03-04 11:00:00 10.1 15 Oeste 30 Oeste 0 -- -- 87
2020-03-04 10:00:00 9.1 21 Oeste 38 Oeste 0 -- -- 92
2020-03-04 09:00:00 8.4 17 Noroeste 46 Oeste 0.2 -- -- 95
2020-03-04 08:00:00 8.2 30 Oeste 48 Oeste 0.2 -- -- 96
2020-03-04 07:00:00 7.7 23 Oeste 43 Oeste 0 -- -- 95
2020-03-04 06:00:00 7.5 18 Oeste 44 Oeste 0 -- -- 88
2020-03-04 05:00:00 7 20 Oeste 39 Oeste 0 -- -- 86
2020-03-04 04:00:00 6.7 24 Oeste 50 Oeste 0 -- -- 84
2020-03-04 03:00:00 6.2 26 Noroeste 51 Noroeste 0 -- -- 82
2020-03-04 02:00:00 6.8 31 Noroeste 51 Noroeste 0 -- -- 84
2020-03-04 01:00:00 6.6 33 Noroeste 53 Noroeste 0 -- -- 78
2020-03-04 00:00:00 6.7 29 Noroeste 46 Oeste 0 -- -- 78
2020-03-03 23:00:00 4.7 15 Noroeste 23 Noroeste 0 -- -- 89
2020-03-03 22:00:00 5 6 Noroeste 22 Noroeste 0 -- -- 88
2020-03-03 21:00:00 6.3 14 Noroeste 21 Norte 0 -- -- 84
2020-03-03 20:00:00 7.5 17 Noroeste 63 Noroeste 0 -- -- 82
2020-03-03 19:00:00 10.5 36 Noroeste 71 Noroeste 0 -- -- 72
2020-03-03 18:00:00 10.9 39 Noroeste 74 Noroeste 0 -- -- 67
2020-03-03 17:00:00 10.8 43 Noroeste 74 Oeste 0 -- -- 64
2020-03-03 16:00:00 9.6 34 Oeste 59 Oeste 0 -- -- 78
2020-03-03 15:00:00 7.7 29 Oeste 59 Oeste 0 -- -- 85
2020-03-03 14:00:00 6.3 31 Oeste 56 Oeste 0 -- -- 88
2020-03-03 13:00:00 4.5 23 Oeste 60 Oeste 0 -- -- 89
2020-03-03 12:00:00 3.8 27 Oeste 49 Oeste 0 -- -- 88
2020-03-03 11:00:00 2.5 26 Oeste 58 Sudoeste 0 -- -- 95
2020-03-03 10:00:00 1.6 30 Oeste 49 Oeste 1.4 -- -- 96
2020-03-03 09:00:00 0.1 27 Oeste 54 Oeste 1.2 -- -- 98
2020-03-03 08:00:00 -0.1 29 Oeste 56 Noroeste 1 -- -- 97
2020-03-03 07:00:00 0.6 33 Oeste 51 Oeste 0 -- -- 83
2020-03-03 06:00:00 0.2 28 Oeste 46 Oeste 0 -- -- 84
2020-03-03 05:00:00 0.2 31 Oeste 53 Oeste 0 -- -- 84
2020-03-03 04:00:00 -0.2 22 Oeste 46 Oeste 0 -- -- 83
2020-03-03 03:00:00 -0.1 22 Noroeste 51 Noroeste 0 -- -- 85
2020-03-03 02:00:00 0.1 33 Noroeste 50 Noroeste 0 -- -- 84
2020-03-03 01:00:00 0.1 33 Noroeste 55 Oeste 0 -- -- 86
2020-03-03 00:00:00 0 34 Noroeste 52 Noroeste 0 -- -- 87
2020-03-02 23:00:00 0.1 33 Noroeste 49 Noroeste 0 -- -- 88
2020-03-02 22:00:00 0.3 30 Noroeste 48 Noroeste 0 -- -- 91
2020-03-02 21:00:00 0.2 22 Noroeste 39 Noroeste 0.4 -- -- 94
2020-03-02 20:00:00 0.5 19 Noroeste 36 Noroeste 0.4 -- -- 97
2020-03-02 19:00:00 -0.2 26 Noroeste 41 Noroeste 0.2 -- -- 97
2020-03-02 18:00:00 -0.6 26 Noroeste 65 Noroeste 0.8 -- -- 97
2020-03-02 17:00:00 0.6 14 Noroeste 45 Norte 1.8 -- -- 95
2020-03-02 16:00:00 3 21 Norte 31 Norte 0 -- -- 82
2020-03-02 15:00:00 1.9 24 Norte 74 Norte 0 -- -- 87
2020-03-02 14:00:00 5.3 42 Noroeste 64 Noroeste 0 -- -- 68
2020-03-02 13:00:00 4.5 42 Noroeste 68 Noroeste 0 -- -- 80
2020-03-02 12:00:00 5 36 Noroeste 77 Noroeste 0 -- -- 76
2020-03-02 11:00:00 4.4 41 Noroeste 75 Noroeste 0 -- -- 80
2020-03-02 10:00:00 4.9 33 Noroeste 73 Noroeste 0 -- -- 78
2020-03-02 09:00:00 4.8 50 Noroeste 92 Noroeste 0.2 -- -- 78
2020-03-02 08:00:00 4.4 43 Noroeste -- -- 1.2 -- -- 93
2020-03-02 07:00:00 7.6 11 Noroeste 53 Sudoeste 0 -- -- 85
2020-03-02 06:00:00 8.4 15 Oeste 62 Oeste 0 -- -- 78
2020-03-02 05:00:00 8.5 21 Oeste 55 Oeste 0 -- -- 79
2020-03-02 04:00:00 8.7 24 Oeste 63 Sudoeste 0 -- -- 79
2020-03-02 03:00:00 8.8 33 Oeste 57 Oeste 0 -- -- 78
2020-03-02 02:00:00 8.8 24 Sudoeste 59 Sudoeste 0 -- -- 76
2020-03-02 01:00:00 8.8 22 Oeste 59 Oeste 0 -- -- 76
2020-03-02 00:00:00 8.7 23 Oeste 55 Oeste 0 -- -- 77
2020-03-01 23:00:00 8.2 20 Oeste 50 Oeste 0 -- -- 79
2020-03-01 22:00:00 8.2 17 Oeste 39 Oeste 0 -- -- 77
2020-03-01 21:00:00 8.1 10 Noroeste 36 Oeste 0 -- -- 77
2020-03-01 20:00:00 7.7 8 Oeste 41 Oeste 0 -- -- 77
2020-03-01 19:00:00 8.2 14 Oeste 45 Oeste 0 -- -- 74
2020-03-01 18:00:00 9.4 22 Oeste 50 Oeste 0 -- -- 67
2020-03-01 17:00:00 9.2 30 Oeste 58 Oeste 0 -- -- 70
2020-03-01 16:00:00 9.9 24 Oeste 46 Oeste 0 -- -- 68
2020-03-01 15:00:00 8.8 27 Oeste 54 Oeste 0 -- -- 71
2020-03-01 14:00:00 9.7 28 Noroeste 59 Noroeste 0 -- -- 63
2020-03-01 13:00:00 8.3 27 Noroeste 49 Noroeste 0 -- -- 71
2020-03-01 12:00:00 8 19 Oeste 46 Oeste 0 -- -- 74
2020-03-01 11:00:00 8.2 27 Oeste 60 Oeste 0 -- -- 70
2020-03-01 10:00:00 6.3 20 Oeste 51 Oeste 0 -- -- 79
2020-03-01 09:00:00 4.9 16 Oeste 33 Noroeste 0 -- -- 85
2020-03-01 08:00:00 4.3 14 Oeste 37 Oeste 0 -- -- 86
2020-03-01 07:00:00 4.1 11 Oeste 33 Oeste 0 -- -- 86
2020-03-01 06:00:00 4.1 17 Oeste 33 Oeste 0 -- -- 86
2020-03-01 05:00:00 4.1 22 Oeste 40 Oeste 0 -- -- 88
2020-03-01 04:00:00 4.9 19 Oeste 41 Oeste 0 -- -- 85
2020-03-01 03:00:00 5.2 19 Noroeste 38 Noroeste 0 -- -- 79
2020-03-01 02:00:00 5.2 21 Noroeste 40 Oeste 0 -- -- 80
2020-03-01 01:00:00 5.7 21 Oeste 39 Noroeste 0 -- -- 81
2020-03-01 00:00:00 6.7 18 Noroeste 36 Noroeste 0 -- -- 81
2020-02-29 23:00:00 7.3 17 Noroeste 37 Oeste 0 -- -- 80
2020-02-29 22:00:00 7.9 21 Oeste 45 Oeste 0 -- -- 81
2020-02-29 21:00:00 7.9 23 Oeste 40 Oeste 0 -- -- 80
2020-02-29 20:00:00 8.4 21 Oeste 46 Noroeste 0 -- -- 79
2020-02-29 19:00:00 8.6 24 Oeste 50 Noroeste 0 -- -- 77
2020-02-29 18:00:00 9.6 21 Oeste 44 Sudoeste 0 -- -- 70
2020-02-29 17:00:00 9.9 23 Oeste 44 Oeste 0 -- -- 69
2020-02-29 16:00:00 11 22 Oeste 49 Oeste 0 -- -- 64
2020-02-29 15:00:00 11.5 16 Oeste 42 Oeste 0 -- -- 62
2020-02-29 14:00:00 11.5 13 Oeste 45 Oeste 0 -- -- 60
2020-02-29 13:00:00 13 19 Oeste 50 Oeste 0 -- -- 49
2020-02-29 12:00:00 12.3 27 Oeste 58 Oeste 0 -- -- 51
2020-02-29 11:00:00 11.1 28 Oeste 48 Oeste 0 -- -- 54
2020-02-29 10:00:00 9.5 19 Oeste 46 Oeste 0 -- -- 59
2020-02-29 09:00:00 7.4 26 Oeste 43 Sudoeste 0 -- -- 70
2020-02-29 08:00:00 6.1 18 Oeste 39 Oeste 0 -- -- 74
2020-02-29 07:00:00 6.6 21 Oeste 42 Sudoeste 0 -- -- 69
2020-02-29 06:00:00 6.8 18 Oeste 36 Sudoeste 0 -- -- 62
2020-02-29 05:00:00 6.6 14 Oeste 37 Oeste 0 -- -- 62
2020-02-29 04:00:00 5.8 12 Sudoeste 23 Sudoeste 0 -- -- 64
2020-02-29 03:00:00 5.4 11 Sudoeste 24 Sudoeste 0 -- -- 71
2020-02-29 02:00:00 6 17 Sudoeste 32 Sudoeste 0 -- -- 70
2020-02-29 01:00:00 7.1 22 Sudoeste 43 Sudoeste 0 -- -- 65
2020-02-29 00:00:00 7.8 33 Sudoeste 49 Sudoeste 0 -- -- 63